createdAt,value
2019-01-10T00:00:15.258Z,7.08
2019-01-10T00:02:43.798Z,6.92
2019-01-10T00:05:12.598Z,7.05
2019-01-10T00:07:41.080Z,6.62
2019-01-10T00:10:13.870Z,7.20
2019-01-10T00:12:42.745Z,7.03
2019-01-10T00:15:18.802Z,7.47
2019-01-10T00:17:47.344Z,7.03
2019-01-10T00:20:17.047Z,7.15
2019-01-10T00:22:45.709Z,6.70
2019-01-10T00:25:14.789Z,6.37
2019-01-10T00:27:43.204Z,6.50
2019-01-10T00:30:16.942Z,6.45
2019-01-10T00:32:45.509Z,6.28
2019-01-10T00:35:14.166Z,6.47
2019-01-10T00:37:42.653Z,7.20
2019-01-10T00:40:14.162Z,6.78
2019-01-10T00:42:49.303Z,6.50
2019-01-10T00:45:15.938Z,6.33
2019-01-10T00:47:44.531Z,6.50
2019-01-10T00:50:15.602Z,6.03
2019-01-10T00:52:44.136Z,6.50
2019-01-10T00:55:12.708Z,7.03
2019-01-10T00:57:41.279Z,6.80
2019-01-10T01:00:15.637Z,6.92
2019-01-10T01:02:44.070Z,6.45
2019-01-10T01:05:14.270Z,6.10
2019-01-10T01:07:42.754Z,6.70
2019-01-10T01:10:14.507Z,6.17
2019-01-10T01:12:43.018Z,6.40
2019-01-10T01:15:13.885Z,5.97
2019-01-10T01:17:42.519Z,6.90
2019-01-10T01:20:13.068Z,5.55
2019-01-10T01:22:41.505Z,6.20
2019-01-10T01:25:11.474Z,6.10
2019-01-10T01:27:39.977Z,6.10
2019-01-10T01:30:17.017Z,6.40
2019-01-10T01:32:45.588Z,6.05
2019-01-10T01:35:14.948Z,6.08
2019-01-10T01:37:43.449Z,6.10
2019-01-10T01:40:19.930Z,5.40
2019-01-10T01:42:48.580Z,6.50
2019-01-10T01:45:18.937Z,6.47
2019-01-10T01:47:47.593Z,5.80
2019-01-10T01:50:18.412Z,5.60
2019-01-10T01:52:46.989Z,5.70
2019-01-10T01:55:15.485Z,5.75
2019-01-10T01:57:44.218Z,6.28
2019-01-10T02:00:15.884Z,6.75
2019-01-10T02:02:44.485Z,6.50
2019-01-10T02:05:13.145Z,6.60
2019-01-10T02:07:41.659Z,7.30
2019-01-10T02:10:13.289Z,6.62
2019-01-10T02:12:41.708Z,7.10
2019-01-10T02:15:10.524Z,6.53
2019-01-10T02:17:38.974Z,6.72
2019-01-10T02:20:09.548Z,6.83
2019-01-10T02:22:38.687Z,6.97
2019-01-10T02:25:10.076Z,6.42
2019-01-10T02:27:38.573Z,6.40
2019-01-10T02:30:10.219Z,6.60
2019-01-10T02:32:38.751Z,7.33
2019-01-10T02:35:08.451Z,7.62
2019-01-10T02:37:36.942Z,7.20
2019-01-10T02:40:09.599Z,7.10
2019-01-10T02:42:38.103Z,7.37
2019-01-10T02:45:10.179Z,7.55
2019-01-10T02:47:38.610Z,7.42
2019-01-10T02:50:10.188Z,6.95
2019-01-10T02:52:38.613Z,7.50
2019-01-10T02:55:08.384Z,7.25
2019-01-10T02:57:36.891Z,7.35
2019-01-10T03:00:08.484Z,7.55
2019-01-10T03:02:36.904Z,7.45
2019-01-10T03:05:05.769Z,7.58
2019-01-10T03:07:34.279Z,6.78
2019-01-10T03:10:02.682Z,6.90
2019-01-10T03:12:31.128Z,7.30
2019-01-10T03:14:59.561Z,7.70
2019-01-10T03:17:27.998Z,6.87
2019-01-10T03:19:56.426Z,6.83
2019-01-10T03:22:24.872Z,7.00
2019-01-10T03:24:53.299Z,6.80
2019-01-10T03:27:21.730Z,7.05
2019-01-10T03:29:50.164Z,6.90
2019-01-10T03:32:18.687Z,6.80
2019-01-10T03:34:47.195Z,6.97
2019-01-10T03:37:15.661Z,7.90
2019-01-10T03:39:44.087Z,7.40
2019-01-10T03:42:12.614Z,7.28
2019-01-10T03:44:41.054Z,7.10
2019-01-10T03:47:09.482Z,7.40
2019-01-10T03:49:37.916Z,7.87
2019-01-10T03:52:06.381Z,7.00
2019-01-10T03:54:34.812Z,7.22
2019-01-10T03:57:03.248Z,7.60
2019-01-10T03:59:31.685Z,7.28
2019-01-10T04:02:00.170Z,7.55
2019-01-10T04:04:28.619Z,6.90
2019-01-10T04:06:57.033Z,8.00
2019-01-10T04:09:25.492Z,7.35
2019-01-10T04:11:53.985Z,7.37
2019-01-10T04:14:22.463Z,7.78
2019-01-10T04:16:50.865Z,7.60
2019-01-10T04:19:19.312Z,7.50
2019-01-10T04:21:47.832Z,7.58
2019-01-10T04:24:16.311Z,7.70
2019-01-10T04:26:44.723Z,7.90
2019-01-10T04:29:13.148Z,6.80
2019-01-10T04:31:41.587Z,7.70
2019-01-10T04:34:10.024Z,7.60
2019-01-10T04:36:38.430Z,7.80
2019-01-10T04:39:07.872Z,7.70
2019-01-10T04:41:36.377Z,8.08
2019-01-10T04:44:07.169Z,8.20
2019-01-10T04:46:35.124Z,7.62
2019-01-10T04:49:03.645Z,7.60
2019-01-10T04:51:32.094Z,7.90
2019-01-10T04:54:00.513Z,8.90
2019-01-10T04:56:28.945Z,8.13
2019-01-10T04:58:57.361Z,8.93
2019-01-10T05:01:25.793Z,8.20
2019-01-10T05:03:54.298Z,8.70
2019-01-10T05:06:22.717Z,8.90
2019-01-10T05:08:51.137Z,9.10
2019-01-10T05:11:19.662Z,9.00
2019-01-10T05:13:48.084Z,8.58
2019-01-10T05:16:16.574Z,8.50
2019-01-10T05:18:45.011Z,8.50
2019-01-10T05:21:13.531Z,8.90
2019-01-10T05:23:42.003Z,8.77
2019-01-10T05:26:10.446Z,9.30
2019-01-10T05:28:38.881Z,8.63
2019-01-10T05:31:07.369Z,8.38
2019-01-10T05:33:35.804Z,8.80
2019-01-10T05:36:04.464Z,9.10
2019-01-10T05:38:32.908Z,8.93
2019-01-10T05:41:01.323Z,9.08
2019-01-10T05:43:29.764Z,8.93
2019-01-10T05:45:58.176Z,9.23
2019-01-10T05:48:26.633Z,8.98
2019-01-10T05:50:55.057Z,9.00
2019-01-10T05:53:23.493Z,9.08
2019-01-10T05:55:51.912Z,8.80
2019-01-10T05:58:20.338Z,9.40
2019-01-10T06:00:48.765Z,9.73
2019-01-10T06:03:17.285Z,9.13
2019-01-10T06:05:46.741Z,8.80
2019-01-10T06:08:15.192Z,9.80
2019-01-10T06:10:45.645Z,9.08
2019-01-10T06:13:13.834Z,8.70
2019-01-10T06:15:42.262Z,9.90
2019-01-10T06:18:10.696Z,9.70
2019-01-10T06:20:39.120Z,10.00
2019-01-10T06:23:07.552Z,9.93
2019-01-10T06:25:35.972Z,9.83
2019-01-10T06:28:04.389Z,10.30
2019-01-10T06:30:32.851Z,9.80
2019-01-10T06:33:01.259Z,10.05
2019-01-10T06:35:29.702Z,9.98
2019-01-10T06:37:58.205Z,9.45
2019-01-10T06:40:26.649Z,8.85
2019-01-10T06:42:55.070Z,10.08
2019-01-10T06:45:23.497Z,9.70
2019-01-10T06:47:52.037Z,9.90
2019-01-10T06:50:20.540Z,10.15
2019-01-10T06:52:49.113Z,9.90
2019-01-10T06:55:17.584Z,9.93
2019-01-10T06:57:45.986Z,11.25
2019-01-10T07:00:17.148Z,10.10
2019-01-10T07:02:45.897Z,10.00
2019-01-10T07:05:14.314Z,10.25
2019-01-10T07:07:42.773Z,9.93
2019-01-10T07:10:14.865Z,10.20
2019-01-10T07:12:43.318Z,10.93
2019-01-10T07:15:11.916Z,10.55
2019-01-10T07:17:40.341Z,10.60
2019-01-10T07:20:10.700Z,12.10
2019-01-10T07:22:50.764Z,10.75
2019-01-10T07:25:19.233Z,10.65
2019-01-10T07:27:48.027Z,10.17
2019-01-10T07:30:19.556Z,10.68
2019-01-10T07:32:48.009Z,10.67
2019-01-10T07:35:16.417Z,11.03
2019-01-10T07:37:49.752Z,11.65
2019-01-10T07:40:18.181Z,10.93
2019-01-10T07:42:46.706Z,10.88
2019-01-10T07:45:21.080Z,11.15
2019-01-10T07:47:50.057Z,11.45
2019-01-10T07:50:19.911Z,10.15
2019-01-10T07:52:48.786Z,11.20
2019-01-10T07:55:17.215Z,11.40
2019-01-10T07:57:45.656Z,11.10
2019-01-10T08:00:19.044Z,11.10
2019-01-10T08:02:47.735Z,11.35
2019-01-10T08:05:16.238Z,12.10
2019-01-10T08:07:44.921Z,12.10
2019-01-10T08:10:15.788Z,11.00
2019-01-10T08:12:44.596Z,11.53
2019-01-10T08:15:19.317Z,10.80
2019-01-10T08:17:47.909Z,11.57
2019-01-10T08:20:16.465Z,10.70
2019-01-10T08:22:45.176Z,11.18
2019-01-10T08:25:13.620Z,11.60
2019-01-10T08:27:42.456Z,11.88
2019-01-10T08:30:19.991Z,11.67
2019-01-10T08:32:48.579Z,10.90
2019-01-10T08:35:19.673Z,10.75
2019-01-10T08:37:48.340Z,10.40
2019-01-10T08:40:17.241Z,12.20
2019-01-10T08:42:45.678Z,11.63
2019-01-10T08:45:21.325Z,10.90
2019-01-10T08:47:44.712Z,11.30
2019-01-10T08:50:19.072Z,10.50
2019-01-10T08:52:47.640Z,11.30
2019-01-10T08:55:16.401Z,10.98
2019-01-10T08:57:44.841Z,10.48
2019-01-10T09:00:15.737Z,11.80
2019-01-10T09:02:44.300Z,11.10
2019-01-10T09:05:13.293Z,11.28
2019-01-10T09:07:41.736Z,10.00
2019-01-10T09:10:16.405Z,11.50
2019-01-10T09:12:44.873Z,11.30
2019-01-10T09:15:22.910Z,11.00
2019-01-10T09:17:43.654Z,11.60
2019-01-10T09:20:13.725Z,11.43
2019-01-10T09:22:42.214Z,10.95
2019-01-10T09:25:10.804Z,10.53
2019-01-10T09:27:39.273Z,11.35
2019-01-10T09:30:10.756Z,9.83
2019-01-10T09:32:39.212Z,10.80
2019-01-10T09:35:07.791Z,11.20
2019-01-10T09:37:36.256Z,10.63
2019-01-10T09:40:07.720Z,10.63
2019-01-10T09:42:36.185Z,9.40
2019-01-10T09:45:07.486Z,9.70
2019-01-10T09:47:35.937Z,10.50
2019-01-10T09:50:07.345Z,10.15
2019-01-10T09:52:35.785Z,9.30
2019-01-10T09:55:04.964Z,10.08
2019-01-10T09:57:33.429Z,11.15
2019-01-10T10:00:01.873Z,10.10
2019-01-10T10:02:30.389Z,11.28
2019-01-10T10:05:00.738Z,10.10
2019-01-10T10:07:29.000Z,10.57
2019-01-10T10:09:57.473Z,10.80
2019-01-10T10:12:25.952Z,9.90
2019-01-10T10:14:54.369Z,9.40
2019-01-10T10:17:22.796Z,9.80
2019-01-10T10:19:51.210Z,9.65
2019-01-10T10:22:19.657Z,10.78
2019-01-10T10:24:48.108Z,9.93
2019-01-10T10:27:16.557Z,11.00
2019-01-10T10:29:44.984Z,10.18
2019-01-10T10:32:13.416Z,10.55
2019-01-10T10:34:41.929Z,10.75
2019-01-10T10:37:10.525Z,10.40
2019-01-10T10:39:38.971Z,10.23
2019-01-10T10:42:07.640Z,10.10
2019-01-10T10:44:36.085Z,10.93
2019-01-10T10:47:04.530Z,10.28
2019-01-10T10:49:32.977Z,10.17
2019-01-10T10:52:01.396Z,9.88
2019-01-10T10:54:29.939Z,10.70
2019-01-10T10:56:58.359Z,10.48
2019-01-10T10:59:26.819Z,10.93
2019-01-10T11:01:55.434Z,10.00
2019-01-10T11:04:23.873Z,9.93
2019-01-10T11:06:52.368Z,10.75
2019-01-10T11:09:20.927Z,10.15
2019-01-10T11:11:49.348Z,10.23
2019-01-10T11:14:17.868Z,10.32
2019-01-10T11:16:46.347Z,10.98
2019-01-10T11:19:14.821Z,10.15
2019-01-10T11:21:43.264Z,9.90
2019-01-10T11:24:11.752Z,9.67
2019-01-10T11:26:40.222Z,9.55
2019-01-10T11:29:08.733Z,9.28
2019-01-10T11:31:37.364Z,10.10
2019-01-10T11:34:05.779Z,10.00
2019-01-10T11:36:34.239Z,9.65
2019-01-10T11:39:03.125Z,10.00
2019-01-10T11:41:31.647Z,10.18
2019-01-10T11:44:00.137Z,9.80
2019-01-10T11:46:28.611Z,9.40
2019-01-10T11:48:57.029Z,9.48
2019-01-10T11:51:25.488Z,9.75
2019-01-10T11:53:53.967Z,9.17
2019-01-10T11:56:22.417Z,9.15
2019-01-10T11:58:50.838Z,9.20
2019-01-10T12:01:19.357Z,9.40
2019-01-10T12:03:47.777Z,9.20
2019-01-10T12:06:16.201Z,9.28
2019-01-10T12:08:44.628Z,9.23
2019-01-10T12:11:13.144Z,8.85
2019-01-10T12:13:41.580Z,9.13
2019-01-10T12:16:10.045Z,9.80
2019-01-10T12:18:38.497Z,9.35
2019-01-10T12:21:07.190Z,8.70
2019-01-10T12:23:35.617Z,9.68
2019-01-10T12:26:04.192Z,8.80
2019-01-10T12:28:32.767Z,8.03
2019-01-10T12:31:01.211Z,8.55
2019-01-10T12:33:29.644Z,7.70
2019-01-10T12:35:58.088Z,7.53
2019-01-10T12:38:26.581Z,8.10
2019-01-10T12:40:55.059Z,8.45
2019-01-10T12:43:23.549Z,7.05
2019-01-10T12:45:52.037Z,7.30
2019-01-10T12:48:20.552Z,7.77
2019-01-10T12:50:49.102Z,7.75
2019-01-10T12:53:17.542Z,8.58
2019-01-10T12:55:46.136Z,7.42
2019-01-10T12:58:14.612Z,8.00
2019-01-10T13:00:43.094Z,7.20
2019-01-10T13:03:11.510Z,7.58
2019-01-10T13:05:40.098Z,7.25
2019-01-10T13:08:08.545Z,6.65
2019-01-10T13:10:36.949Z,7.45
2019-01-10T13:13:05.634Z,6.62
2019-01-10T13:15:34.081Z,6.45
2019-01-10T13:18:02.577Z,6.42
2019-01-10T13:20:31.029Z,5.80
2019-01-10T13:22:59.449Z,6.30
2019-01-10T13:25:27.886Z,6.60
2019-01-10T13:27:57.309Z,5.97
2019-01-10T13:30:25.972Z,7.70
2019-01-10T13:32:54.635Z,6.80
2019-01-10T13:35:23.355Z,6.72
2019-01-10T13:37:51.941Z,6.20
2019-01-10T13:40:20.453Z,6.62
2019-01-10T13:42:48.944Z,7.50
2019-01-10T13:45:18.229Z,6.10
2019-01-10T13:47:49.871Z,6.20
2019-01-10T13:50:23.992Z,6.20
2019-01-10T13:52:52.423Z,5.83
2019-01-10T13:55:21.201Z,6.00
2019-01-10T13:57:49.793Z,6.40
2019-01-10T14:00:20.918Z,6.20
2019-01-10T14:02:49.428Z,6.35
2019-01-10T14:05:17.881Z,6.72
2019-01-10T14:07:46.413Z,7.00
2019-01-10T14:10:16.613Z,6.70
2019-01-10T14:12:45.237Z,6.25
2019-01-10T14:15:16.925Z,6.80
2019-01-10T14:17:45.434Z,6.85
2019-01-10T14:20:14.989Z,6.05
2019-01-10T14:22:43.492Z,6.92
2019-01-10T14:25:12.167Z,6.12
2019-01-10T14:27:40.669Z,7.40
2019-01-10T14:30:12.222Z,7.60
2019-01-10T14:32:40.721Z,7.50
2019-01-10T14:35:09.281Z,6.80
2019-01-10T14:37:37.739Z,7.22
2019-01-10T14:40:08.481Z,6.00
2019-01-10T14:42:37.084Z,6.40
2019-01-10T14:45:08.575Z,6.90
2019-01-10T14:47:37.079Z,6.57
2019-01-10T14:50:08.270Z,6.28
2019-01-10T14:52:36.948Z,5.80
2019-01-10T14:55:08.704Z,6.33
2019-01-10T14:57:37.185Z,5.62
2019-01-10T15:00:16.954Z,5.62
2019-01-10T15:02:45.378Z,6.30
2019-01-10T15:05:14.067Z,5.60
2019-01-10T15:07:42.555Z,5.17
2019-01-10T15:10:12.457Z,5.40
2019-01-10T15:12:41.907Z,5.00
2019-01-10T15:15:13.728Z,5.47
2019-01-10T15:17:42.208Z,5.43
2019-01-10T15:20:16.463Z,4.67
2019-01-10T15:22:44.867Z,4.70
2019-01-10T15:25:13.951Z,5.30
2019-01-10T15:27:42.445Z,4.60
2019-01-10T15:30:16.506Z,4.90
2019-01-10T15:32:45.273Z,4.60
2019-01-10T15:35:14.454Z,4.90
2019-01-10T15:37:42.965Z,4.62
2019-01-10T15:40:17.269Z,5.10
2019-01-10T15:42:45.732Z,5.17
2019-01-10T15:45:14.668Z,5.03
2019-01-10T15:47:43.109Z,4.15
2019-01-10T15:50:17.478Z,4.50
2019-01-10T15:52:46.181Z,4.87
2019-01-10T15:55:17.376Z,4.50
2019-01-10T15:57:45.926Z,4.60
2019-01-10T16:00:17.068Z,4.95
2019-01-10T16:02:45.530Z,5.10
2019-01-10T16:05:14.181Z,5.25
2019-01-10T16:07:42.765Z,5.10
2019-01-10T16:10:13.730Z,4.90
2019-01-10T16:12:42.328Z,4.53
2019-01-10T16:15:16.248Z,4.58
2019-01-10T16:17:44.722Z,4.65
2019-01-10T16:20:14.284Z,5.35
2019-01-10T16:22:43.277Z,5.08
2019-01-10T16:25:14.342Z,5.00
2019-01-10T16:27:42.918Z,4.53
2019-01-10T16:30:14.495Z,5.03
2019-01-10T16:32:43.021Z,5.08
2019-01-10T16:35:11.573Z,5.28
2019-01-10T16:37:40.262Z,5.05
2019-01-10T16:40:11.520Z,5.35
2019-01-10T16:42:39.974Z,5.50
2019-01-10T16:45:11.741Z,5.50
2019-01-10T16:47:40.190Z,5.08
2019-01-10T16:50:11.968Z,5.20
2019-01-10T16:52:40.422Z,4.40
2019-01-10T16:55:10.521Z,5.05
2019-01-10T16:57:38.939Z,4.83
2019-01-10T17:00:13.376Z,5.05
2019-01-10T17:02:41.821Z,4.90
2019-01-10T17:05:10.406Z,4.73
2019-01-10T17:10:10.070Z,5.70
2019-01-10T17:12:38.510Z,4.33
2019-01-10T17:15:09.994Z,4.60
2019-01-10T17:17:38.456Z,5.10
2019-01-10T17:20:13.087Z,5.03
2019-01-10T17:22:41.581Z,5.53
2019-01-10T17:25:10.482Z,5.30
2019-01-10T17:27:39.080Z,5.30
2019-01-10T17:30:19.242Z,5.50
2019-01-10T17:32:47.671Z,5.50
2019-01-10T17:35:19.170Z,5.40
2019-01-10T17:37:47.780Z,5.53
2019-01-10T17:40:22.926Z,5.67
2019-01-10T17:42:52.081Z,5.47
2019-01-10T17:45:29.459Z,5.25
2019-01-10T17:47:58.059Z,5.40
2019-01-10T17:50:26.467Z,5.67
2019-01-10T17:52:55.181Z,5.50
2019-01-10T17:55:23.703Z,5.58
2019-01-10T17:57:52.214Z,5.08
2019-01-10T18:00:26.004Z,4.97
2019-01-10T18:02:54.617Z,4.72
2019-01-10T18:05:23.261Z,4.60
2019-01-10T18:07:51.896Z,4.92
2019-01-10T18:10:21.666Z,5.40
2019-01-10T18:12:50.175Z,5.35
2019-01-10T18:15:21.378Z,5.60
2019-01-10T18:17:50.401Z,5.80
2019-01-10T18:20:33.843Z,5.97
2019-01-10T18:23:02.353Z,4.67
2019-01-10T18:25:30.915Z,5.10
2019-01-10T18:27:59.439Z,5.20
2019-01-10T18:30:27.856Z,5.40
2019-01-10T18:32:56.362Z,5.70
2019-01-10T18:35:26.527Z,5.67
2019-01-10T18:37:55.466Z,6.08
2019-01-10T18:40:23.904Z,5.67
2019-01-10T18:42:52.605Z,5.50
2019-01-10T18:45:26.601Z,6.10
2019-01-10T18:47:57.283Z,5.60
2019-01-10T18:50:26.003Z,5.92
2019-01-10T18:52:54.630Z,6.40
2019-01-10T18:55:23.236Z,6.22
2019-01-10T18:57:51.650Z,6.77
2019-01-10T19:00:27.989Z,6.20
2019-01-10T19:02:57.179Z,6.40
2019-01-10T19:05:26.030Z,6.40
2019-01-10T19:07:54.618Z,7.10
2019-01-10T19:10:23.970Z,6.60
2019-01-10T19:12:52.660Z,6.65
2019-01-10T19:15:21.285Z,6.55
2019-01-10T19:17:49.878Z,6.45
2019-01-10T19:20:26.279Z,6.90
2019-01-10T19:22:55.989Z,6.93
2019-01-10T19:25:24.548Z,7.00
2019-01-10T19:27:53.053Z,6.30
2019-01-10T19:30:23.951Z,7.10
2019-01-10T19:32:52.663Z,7.10
2019-01-10T19:35:21.247Z,7.40
2019-01-10T19:37:49.924Z,6.67
2019-01-10T19:40:21.291Z,7.00
2019-01-10T19:42:49.982Z,7.00
2019-01-10T19:45:22.516Z,6.30
2019-01-10T19:47:51.275Z,6.40
2019-01-10T19:50:21.988Z,6.72
2019-01-10T19:52:50.705Z,7.60
2019-01-10T19:55:20.531Z,14.10
2019-01-10T19:57:49.264Z,21.12
2019-01-10T20:00:23.678Z,21.00
2019-01-10T20:02:52.363Z,14.83
2019-01-10T20:05:21.134Z,12.30
2019-01-10T20:07:49.633Z,14.40
2019-01-10T20:10:18.376Z,13.72
2019-01-10T20:12:46.853Z,18.77
2019-01-10T20:15:15.482Z,20.30
2019-01-10T20:17:44.019Z,17.20
2019-01-10T20:20:27.247Z,14.53
2019-01-10T20:22:55.973Z,14.23
2019-01-10T20:25:24.466Z,13.90
2019-01-10T20:27:52.982Z,12.13
2019-01-10T20:30:21.718Z,15.83
2019-01-10T20:32:50.212Z,13.10
2019-01-10T20:35:18.734Z,13.03
2019-01-10T20:37:47.340Z,14.33
2019-01-10T20:40:18.057Z,22.57
2019-01-10T20:42:46.879Z,24.67
2019-01-10T20:45:15.546Z,18.90
2019-01-10T20:47:44.325Z,15.67
2019-01-10T20:50:14.581Z,11.47
2019-01-10T20:52:43.275Z,13.23
2019-01-10T20:55:16.478Z,9.13
2019-01-10T20:57:45.045Z,9.87
2019-01-10T21:00:19.339Z,8.60
2019-01-10T21:02:48.126Z,9.63
2019-01-10T21:05:16.852Z,8.37
2019-01-10T21:07:47.023Z,8.80
2019-01-10T21:10:20.497Z,10.70
2019-01-10T21:12:49.481Z,10.43
2019-01-10T21:15:20.648Z,9.10
2019-01-10T21:17:49.750Z,8.63
2019-01-10T21:20:18.314Z,7.50
2019-01-10T21:22:46.890Z,7.77
2019-01-10T21:25:16.020Z,8.30
2019-01-10T21:27:44.612Z,8.53
2019-01-10T21:30:19.198Z,8.47
2019-01-10T21:32:47.939Z,8.67
2019-01-10T21:35:16.836Z,8.70
2019-01-10T21:40:18.181Z,9.03
2019-01-10T21:42:46.987Z,8.40
2019-01-10T21:45:18.281Z,8.60
2019-01-10T21:47:46.867Z,9.03
2019-01-10T21:50:18.049Z,9.73
2019-01-10T21:52:46.584Z,13.68
2019-01-10T21:55:15.270Z,17.12
2019-01-10T21:57:44.038Z,11.97
2019-01-10T22:00:15.535Z,12.57
2019-01-10T22:02:43.977Z,13.83
2019-01-10T22:05:12.488Z,9.70
2019-01-10T22:07:40.911Z,9.13
2019-01-10T22:10:11.289Z,10.15
2019-01-10T22:12:39.806Z,11.93
2019-01-10T22:15:14.280Z,27.98
2019-01-10T22:17:42.777Z,23.50
2019-01-10T22:20:16.656Z,20.97
2019-01-10T22:22:45.231Z,15.70
2019-01-10T22:25:13.821Z,20.13
2019-01-10T22:27:42.271Z,16.20
2019-01-10T22:30:16.821Z,16.45
2019-01-10T22:32:45.339Z,19.70
2019-01-10T22:35:16.628Z,22.60
2019-01-10T22:37:45.115Z,16.45
2019-01-10T22:40:16.211Z,11.40
2019-01-10T22:42:44.876Z,14.15
2019-01-10T22:45:14.192Z,12.07
2019-01-10T22:47:42.763Z,14.47
2019-01-10T22:50:14.289Z,17.73
2019-01-10T22:52:42.717Z,12.25
2019-01-10T22:55:12.945Z,10.10
2019-01-10T22:57:41.417Z,9.10
2019-01-10T23:00:58.591Z,7.87
2019-01-10T23:03:28.574Z,8.30
2019-01-10T23:05:57.092Z,8.20
2019-01-10T23:08:25.587Z,8.10
2019-01-10T23:10:54.105Z,8.70
2019-01-10T23:13:22.633Z,9.80
2019-01-10T23:15:51.380Z,8.30
2019-01-10T23:18:19.792Z,8.57
2019-01-10T23:20:56.405Z,8.60
2019-01-10T23:23:25.453Z,8.97
2019-01-10T23:25:54.334Z,8.50
2019-01-10T23:28:22.947Z,9.50
2019-01-10T23:30:56.525Z,8.40
2019-01-10T23:33:25.919Z,9.27
2019-01-10T23:36:02.379Z,8.47
2019-01-10T23:38:31.342Z,8.60
2019-01-10T23:41:00.112Z,8.00
2019-01-10T23:43:28.778Z,8.33
2019-01-10T23:45:57.351Z,8.30
2019-01-10T23:48:25.990Z,7.93
2019-01-10T23:50:54.454Z,7.33
2019-01-10T23:53:22.909Z,8.10
2019-01-10T23:55:51.478Z,8.50
2019-01-10T23:58:20.162Z,8.07
